Time;durP1;ratioP1;P1;durP2;ratioP2;P2;SDS_P1;SDS_P2;PMS_P1;PMS_P2;Temp;Humidity;BMP_temperature;BMP_pressure;BME280_temperature;BME280_humidity;BME280_pressure;Samples;Min_cycle;Max_cycle;Signal;HPM_P1;HPM_P2
2021/11/25 00:01:36;;;;;;;23.58;13.70;;;2.50;99.90;;;;;;5002457;28;20035;-81
2021/11/25 00:04:02;;;;;;;24.58;13.43;;;2.60;99.90;;;;;;5002175;28;20509;-81
2021/11/25 00:06:27;;;;;;;22.40;12.88;;;2.50;99.90;;;;;;5001722;28;20045;-80
2021/11/25 00:08:53;;;;;;;25.40;13.20;;;2.50;99.90;;;;;;5000411;28;20034;-79
2021/11/25 00:11:19;;;;;;;26.10;14.02;;;2.60;99.90;;;;;;5000366;28;20022;-81
2021/11/25 00:13:45;;;;;;;27.15;13.10;;;2.50;99.90;;;;;;5001586;28;20483;-81
2021/11/25 00:16:10;;;;;;;23.80;13.07;;;2.50;99.90;;;;;;4984730;28;20031;-81
2021/11/25 00:18:36;;;;;;;20.60;12.38;;;2.50;99.90;;;;;;5001289;28;20057;-81
2021/11/25 00:21:02;;;;;;;21.05;12.02;;;2.50;99.90;;;;;;5001641;28;20060;-80
2021/11/25 00:23:27;;;;;;;23.67;12.48;;;2.60;99.90;;;;;;4984258;28;20100;-81
2021/11/25 00:25:53;;;;;;;20.15;12.48;;;2.60;99.90;;;;;;5003191;28;20089;-81
2021/11/25 00:28:19;;;;;;;22.35;12.52;;;2.50;99.90;;;;;;5002032;28;21500;-81
2021/11/25 00:30:44;;;;;;;22.38;12.07;;;2.90;99.90;;;;;;5014382;28;20040;-81
2021/11/25 00:33:10;;;;;;;23.33;12.10;;;3.50;99.90;;;;;;5015461;28;20031;-80
2021/11/25 00:35:36;;;;;;;23.05;12.45;;;3.80;99.90;;;;;;5003778;28;20516;-80
2021/11/25 00:38:02;;;;;;;23.02;12.75;;;2.60;99.90;;;;;;5001260;28;20034;-80
2021/11/25 00:40:27;;;;;;;21.88;12.85;;;2.50;99.90;;;;;;5001633;28;20102;-80
2021/11/25 00:42:53;;;;;;;20.60;12.15;;;2.40;99.90;;;;;;5002742;28;20049;-81
2021/11/25 00:45:19;;;;;;;21.10;12.27;;;2.50;99.90;;;;;;4985415;28;20511;-81
2021/11/25 00:47:45;;;;;;;20.20;12.23;;;2.60;99.90;;;;;;5011855;28;20026;-82
2021/11/25 00:50:13;;;;;;;19.63;11.68;;;2.50;99.90;;;;;;5016928;28;20062;-81
2021/11/25 00:52:39;;;;;;;21.92;12.32;;;2.50;99.90;;;;;;5002108;28;20044;-82
2021/11/25 00:55:06;;;;;;;23.15;12.70;;;2.40;99.90;;;;;;5018895;28;20029;-81
2021/11/25 00:57:31;;;;;;;21.13;11.65;;;2.50;99.90;;;;;;5018934;28;20024;-81
2021/11/25 00:59:57;;;;;;;22.33;11.88;;;2.50;99.90;;;;;;5018011;28;20023;-81
2021/11/25 01:02:23;;;;;;;22.58;12.30;;;2.40;99.90;;;;;;5002724;28;20023;-81
2021/11/25 01:04:48;;;;;;;17.90;11.25;;;2.50;99.90;;;;;;5019413;28;20198;-81
2021/11/25 01:07:14;;;;;;;24.08;12.05;;;2.40;99.90;;;;;;5018840;28;20022;-82
2021/11/25 01:09:40;;;;;;;22.05;11.65;;;2.70;99.90;;;;;;5018384;28;20028;-82
2021/11/25 01:12:07;;;;;;;20.35;11.48;;;2.60;99.90;;;;;;5019314;28;20026;-82
2021/11/25 01:14:35;;;;;;;19.73;11.43;;;2.50;99.90;;;;;;5018315;28;20014;-81
2021/11/25 01:17:01;;;;;;;20.55;11.60;;;2.50;99.90;;;;;;5018467;28;20011;-83
2021/11/25 01:19:27;;;;;;;20.70;12.07;;;2.50;99.90;;;;;;5017511;28;20034;-81
2021/11/25 01:21:57;;;;;;;22.73;12.02;;;2.50;99.90;;;;;;5014859;28;20022;-82
2021/11/25 01:24:23;;;;;;;23.90;11.82;;;2.50;99.90;;;;;;5018071;28;20018;-81
2021/11/25 01:26:48;;;;;;;18.13;11.23;;;2.50;99.90;;;;;;5017606;28;20042;-80
2021/11/25 01:29:14;;;;;;;18.70;11.13;;;2.50;99.90;;;;;;5000154;28;20023;-81
2021/11/25 01:31:41;;;;;;;20.58;11.75;;;2.60;99.90;;;;;;4992910;28;20045;-80
2021/11/25 01:34:06;;;;;;;22.25;12.13;;;2.50;99.90;;;;;;4999522;28;20037;-80
2021/11/25 01:36:33;;;;;;;19.88;11.27;;;2.60;99.90;;;;;;4999125;28;20038;-80
2021/11/25 01:38:59;;;;;;;20.15;11.23;;;2.50;99.90;;;;;;4997924;28;20034;-80
2021/11/25 01:41:25;;;;;;;18.45;10.73;;;2.60;99.90;;;;;;4998957;28;20554;-80
2021/11/25 01:43:50;;;;;;;22.20;11.55;;;2.50;99.90;;;;;;4997358;28;20049;-81
2021/11/25 01:46:18;;;;;;;20.20;11.75;;;2.60;99.90;;;;;;4998124;28;20109;-81
2021/11/25 01:48:48;;;;;;;20.25;11.55;;;2.50;99.90;;;;;;4997726;28;20046;-81
2021/11/25 01:51:20;;;;;;;21.40;11.73;;;2.50;99.90;;;;;;4997196;28;20030;-81
2021/11/25 01:53:46;;;;;;;20.50;12.57;;;2.30;99.90;;;;;;4998069;28;20035;-82
2021/11/25 01:56:14;;;;;;;21.55;11.68;;;2.40;99.90;;;;;;4997904;28;20116;-80
2021/11/25 01:58:40;;;;;;;20.05;11.60;;;3.60;99.90;;;;;;4997595;28;20036;-81
2021/11/25 02:01:10;;;;;;;21.33;11.15;;;2.50;99.90;;;;;;4997796;28;20109;-81
2021/11/25 02:03:36;;;;;;;21.63;12.40;;;2.60;99.90;;;;;;4997826;28;20030;-81
2021/11/25 02:06:03;;;;;;;21.08;12.57;;;2.50;99.90;;;;;;4998224;28;20058;-82
2021/11/25 02:08:28;;;;;;;24.23;12.52;;;2.50;99.90;;;;;;4997503;28;20077;-81
2021/11/25 02:10:56;;;;;;;20.38;11.90;;;2.40;99.90;;;;;;4998024;28;20030;-82
2021/11/25 02:13:22;;;;;;;19.88;11.43;;;2.40;99.90;;;;;;4997929;28;20043;-82
2021/11/25 02:15:49;;;;;;;24.23;12.95;;;2.40;99.90;;;;;;4997313;28;20057;-82
2021/11/25 02:18:17;;;;;;;22.35;12.65;;;2.40;99.90;;;;;;4998843;28;20026;-82
2021/11/25 02:20:47;;;;;;;27.67;12.25;;;2.50;99.90;;;;;;5001691;28;20019;-82
2021/11/25 02:23:16;;;;;;;20.35;11.68;;;2.40;99.90;;;;;;5001819;28;20030;-82
2021/11/25 02:25:42;;;;;;;20.15;11.90;;;2.60;99.90;;;;;;4984671;28;20045;-80
2021/11/25 02:28:08;;;;;;;23.55;12.32;;;2.50;99.90;;;;;;4983546;28;20093;-82
2021/11/25 02:30:35;;;;;;;21.60;12.55;;;2.40;99.90;;;;;;5001301;28;20475;-81
2021/11/25 02:33:01;;;;;;;22.83;12.60;;;2.30;99.90;;;;;;5001846;28;20037;-82
2021/11/25 02:35:30;;;;;;;21.80;11.73;;;2.30;99.90;;;;;;5002576;28;20084;-81
2021/11/25 02:37:57;;;;;;;20.50;11.57;;;2.20;99.90;;;;;;5001684;28;20402;-80
2021/11/25 02:40:27;;;;;;;20.77;11.55;;;2.20;99.90;;;;;;4981493;28;20026;-81
2021/11/25 02:42:59;;;;;;;21.35;12.55;;;2.40;99.90;;;;;;4981192;28;20454;-81
2021/11/25 02:45:26;;;;;;;24.25;12.63;;;2.20;99.90;;;;;;4982435;28;20503;-81
2021/11/25 02:47:53;;;;;;;20.80;11.57;;;2.30;99.90;;;;;;4986028;28;20074;-81
2021/11/25 02:50:21;;;;;;;21.88;11.23;;;2.10;99.90;;;;;;5001094;28;20061;-81
2021/11/25 02:52:47;;;;;;;20.02;11.90;;;2.10;99.90;;;;;;5001191;28;20491;-81
2021/11/25 02:55:15;;;;;;;19.92;11.23;;;2.20;99.90;;;;;;5000924;28;20058;-81
2021/11/25 02:57:41;;;;;;;21.10;12.60;;;2.20;99.90;;;;;;5002165;28;20027;-81
2021/11/25 03:00:22;;;;;;;22.35;12.30;;;2.10;99.90;;;;;;5000047;28;20061;-81
2021/11/25 03:03:04;;;;;;;21.52;12.30;;;2.10;99.90;;;;;;5000717;28;20026;-80
2021/11/25 03:05:30;;;;;;;18.92;12.75;;;2.20;99.90;;;;;;5001363;28;20061;-81
2021/11/25 03:07:59;;;;;;;20.35;11.57;;;2.10;99.90;;;;;;5001157;28;20030;-80
2021/11/25 03:10:25;;;;;;;20.13;11.48;;;2.10;99.90;;;;;;5000366;28;20085;-82
2021/11/25 03:12:51;;;;;;;24.25;12.70;;;2.10;99.90;;;;;;5001213;28;20088;-81
2021/11/25 03:15:16;;;;;;;24.00;12.70;;;2.10;99.90;;;;;;5006367;28;20093;-81
2021/11/25 03:17:42;;;;;;;19.75;12.10;;;2.10;99.90;;;;;;5007017;28;20054;-80
2021/11/25 03:20:08;;;;;;;21.45;12.70;;;2.00;99.90;;;;;;5004861;28;20634;-80
2021/11/25 03:22:34;;;;;;;21.98;12.35;;;2.00;99.90;;;;;;5004497;28;20026;-80
2021/11/25 03:24:59;;;;;;;24.60;13.18;;;3.20;99.90;;;;;;5005129;28;20403;-80
2021/11/25 03:27:25;;;;;;;25.38;13.05;;;1.90;99.90;;;;;;5006287;28;20038;-80
2021/11/25 03:29:51;;;;;;;21.30;11.82;;;1.80;99.90;;;;;;5003839;28;20014;-80
2021/11/25 03:32:16;;;;;;;21.40;10.98;;;2.10;99.90;;;;;;4989110;28;20398;-81
2021/11/25 03:34:42;;;;;;;21.27;12.25;;;2.00;99.90;;;;;;4989098;28;20041;-80
2021/11/25 03:37:08;;;;;;;21.77;11.85;;;2.10;99.90;;;;;;4989851;28;20050;-80
2021/11/25 03:39:33;;;;;;;21.08;12.23;;;2.00;99.90;;;;;;5007455;28;20034;-81
2021/11/25 03:41:59;;;;;;;22.80;12.10;;;2.10;99.90;;;;;;5009349;28;20110;-80
2021/11/25 03:44:25;;;;;;;21.88;12.60;;;2.10;99.90;;;;;;5009412;28;20077;-80
2021/11/25 03:46:50;;;;;;;22.83;12.02;;;2.10;99.90;;;;;;5008151;28;20472;-80
2021/11/25 03:49:16;;;;;;;20.17;11.52;;;2.00;99.90;;;;;;5007443;28;20056;-80
2021/11/25 03:51:41;;;;;;;22.70;12.57;;;2.10;99.90;;;;;;5006277;28;20038;-81
2021/11/25 03:54:07;;;;;;;22.67;12.05;;;2.10;99.90;;;;;;5004904;28;20049;-80
2021/11/25 03:56:33;;;;;;;22.20;11.65;;;2.20;99.90;;;;;;5002826;28;20026;-81
2021/11/25 03:58:59;;;;;;;18.35;11.15;;;2.10;99.90;;;;;;4997895;28;20042;-81
2021/11/25 04:01:25;;;;;;;18.02;10.25;;;2.10;99.90;;;;;;5002296;28;20023;-80
2021/11/25 04:03:51;;;;;;;18.23;11.13;;;2.10;99.90;;;;;;5003606;28;20050;-80
2021/11/25 04:06:16;;;;;;;22.27;11.70;;;2.10;99.90;;;;;;5001947;28;20415;-80
2021/11/25 04:08:42;;;;;;;22.48;12.23;;;2.10;99.90;;;;;;4996043;28;20035;-80
2021/11/25 04:11:08;;;;;;;19.25;10.57;;;2.10;99.90;;;;;;4997994;28;20030;-82
2021/11/25 04:13:34;;;;;;;19.45;11.07;;;2.10;99.90;;;;;;4997308;28;20592;-81
2021/11/25 04:16:00;;;;;;;23.00;12.05;;;2.00;99.90;;;;;;4996822;28;20045;-80
2021/11/25 04:18:26;;;;;;;21.45;12.48;;;2.00;99.90;;;;;;4996401;28;20030;-80
2021/11/25 04:20:52;;;;;;;17.90;10.73;;;2.00;99.90;;;;;;4997033;28;20034;-80
2021/11/25 04:23:18;;;;;;;20.10;12.10;;;2.00;99.90;;;;;;4997112;28;20058;-80
2021/11/25 04:25:44;;;;;;;20.90;11.60;;;2.00;99.90;;;;;;4997133;28;20050;-81
2021/11/25 04:28:10;;;;;;;19.02;11.68;;;1.90;99.90;;;;;;4996412;28;20525;-80
2021/11/25 04:35:48;;;;;;;19.60;11.90;;;2.00;99.90;;;;;;4996450;28;20470;-80
2021/11/25 04:38:17;;;;;;;23.77;12.10;;;3.50;99.90;;;;;;4996221;28;20030;-80
2021/11/25 04:40:54;;;;;;;19.33;11.25;;;1.90;99.90;;;;;;4977725;28;20038;-80
2021/11/25 04:43:20;;;;;;;22.05;12.27;;;1.80;99.90;;;;;;4996182;28;20027;-80
2021/11/25 04:45:49;;;;;;;21.98;12.38;;;1.90;99.90;;;;;;4996108;28;20549;-80
2021/11/25 04:48:17;;;;;;;22.65;12.10;;;1.80;99.90;;;;;;4995875;28;20047;-80
2021/11/25 04:50:43;;;;;;;24.30;12.70;;;1.80;99.90;;;;;;4976688;28;20078;-80
2021/11/25 04:53:11;;;;;;;20.40;11.20;;;1.80;99.90;;;;;;4977431;28;20427;-80
2021/11/25 04:55:37;;;;;;;22.70;11.75;;;1.90;99.90;;;;;;4977093;28;20054;-80
2021/11/25 04:58:03;;;;;;;21.00;11.30;;;2.00;99.90;;;;;;4976825;28;20033;-80
2021/11/25 05:00:28;;;;;;;20.45;12.10;;;2.00;99.90;;;;;;4975120;28;20084;-81
2021/11/25 05:02:54;;;;;;;21.10;11.30;;;2.00;99.90;;;;;;4987890;28;20023;-81
2021/11/25 05:05:20;;;;;;;21.08;11.50;;;2.00;99.90;;;;;;4988517;28;20042;-80
2021/11/25 05:07:45;;;;;;;19.20;11.35;;;2.00;99.90;;;;;;4979333;28;20035;-80
2021/11/25 05:10:11;;;;;;;19.23;11.48;;;1.90;99.90;;;;;;4997792;28;20033;-80
2021/11/25 05:12:38;;;;;;;21.02;11.25;;;2.10;99.90;;;;;;4997133;28;20022;-80
2021/11/25 05:15:09;;;;;;;20.45;11.77;;;2.00;99.90;;;;;;4996882;28;20085;-80
2021/11/25 05:17:36;;;;;;;24.20;12.05;;;1.90;99.90;;;;;;4997050;28;20089;-80
2021/11/25 05:20:03;;;;;;;22.00;11.60;;;1.90;99.90;;;;;;4996562;28;20026;-80
2021/11/25 05:22:28;;;;;;;22.95;12.25;;;1.90;99.90;;;;;;4996852;28;20081;-80
2021/11/25 05:24:54;;;;;;;19.75;12.15;;;1.90;99.90;;;;;;4997628;28;20034;-81
2021/11/25 05:27:20;;;;;;;20.15;11.38;;;2.00;99.90;;;;;;4997475;28;20034;-79
2021/11/25 05:29:45;;;;;;;22.75;11.68;;;3.10;99.90;;;;;;4996342;28;20037;-80
2021/11/25 05:32:15;;;;;;;21.08;12.13;;;1.90;99.90;;;;;;4996414;28;20034;-80
2021/11/25 05:34:40;;;;;;;19.42;11.80;;;2.00;99.90;;;;;;4996051;28;20018;-80
2021/11/25 05:37:06;;;;;;;21.77;11.52;;;1.90;99.90;;;;;;4995780;28;20038;-80
2021/11/25 05:39:32;;;;;;;22.70;11.98;;;3.00;99.90;;;;;;4978348;28;20446;-80
2021/11/25 05:41:57;;;;;;;20.13;11.82;;;1.90;99.90;;;;;;4996296;28;20045;-80
2021/11/25 05:44:23;;;;;;;23.77;13.07;;;1.90;99.90;;;;;;4996189;28;20034;-80
2021/11/25 05:46:49;;;;;;;23.13;12.27;;;1.90;99.90;;;;;;4996078;28;20039;-80
2021/11/25 05:49:14;;;;;;;23.55;12.85;;;1.90;99.90;;;;;;4995115;28;20502;-80
2021/11/25 05:51:40;;;;;;;23.42;12.30;;;1.80;99.90;;;;;;4996104;28;20057;-80
2021/11/25 05:54:06;;;;;;;22.75;12.27;;;1.90;99.90;;;;;;4995950;28;20053;-81
2021/11/25 05:56:31;;;;;;;26.80;13.77;;;1.90;99.90;;;;;;4997269;28;20029;-80
2021/11/25 05:58:58;;;;;;;25.25;13.15;;;2.00;99.90;;;;;;4996245;28;20076;-81
2021/11/25 06:01:24;;;;;;;24.52;13.88;;;2.00;99.90;;;;;;4996706;28;20428;-80
2021/11/25 06:03:52;;;;;;;24.98;14.13;;;2.70;99.90;;;;;;4996520;28;20038;-80
2021/11/25 06:06:18;;;;;;;23.17;14.15;;;2.10;99.90;;;;;;4996424;28;20025;-80
2021/11/25 06:08:43;;;;;;;24.75;12.85;;;2.00;99.90;;;;;;4995665;28;20030;-81
2021/11/25 06:11:09;;;;;;;25.40;13.35;;;2.10;99.90;;;;;;4996837;28;20058;-81
2021/11/25 06:13:35;;;;;;;24.95;13.23;;;2.00;99.90;;;;;;4996781;28;20038;-81
2021/11/25 06:16:02;;;;;;;26.25;13.07;;;2.10;99.90;;;;;;4996910;28;20037;-81
2021/11/25 06:18:27;;;;;;;26.05;13.95;;;2.10;99.90;;;;;;4996417;28;20030;-81
2021/11/25 06:20:53;;;;;;;22.75;13.23;;;2.10;99.90;;;;;;4997006;28;20023;-81
2021/11/25 06:23:20;;;;;;;21.60;13.20;;;2.00;99.90;;;;;;4979160;28;20398;-80
2021/11/25 06:25:46;;;;;;;26.10;13.82;;;2.10;99.90;;;;;;4999423;28;20026;-79
2021/11/25 06:28:12;;;;;;;22.77;12.65;;;2.10;99.90;;;;;;5000262;28;20030;-79
2021/11/25 06:30:38;;;;;;;24.48;13.57;;;2.30;99.90;;;;;;5000964;28;20041;-80
2021/11/25 06:33:04;;;;;;;25.20;14.38;;;2.10;99.90;;;;;;4987621;28;20395;-80
2021/11/25 06:35:31;;;;;;;27.25;14.35;;;2.00;99.90;;;;;;4977112;28;20039;-79
2021/11/25 06:37:56;;;;;;;24.75;13.60;;;2.00;99.90;;;;;;4978162;28;20026;-80
2021/11/25 06:40:28;;;;;;;27.58;15.02;;;2.00;99.90;;;;;;4995826;28;20073;-79
2021/11/25 06:43:01;;;;;;;27.48;14.38;;;2.10;99.90;;;;;;4996046;28;20035;-79
2021/11/25 06:45:27;;;;;;;26.63;14.13;;;3.10;99.90;;;;;;4996151;28;20121;-80
2021/11/25 06:47:53;;;;;;;24.65;13.15;;;2.00;99.90;;;;;;4991589;28;20034;-79
2021/11/25 06:50:20;;;;;;;24.02;13.40;;;2.10;99.90;;;;;;4994719;28;20054;-79
2021/11/25 06:52:46;;;;;;;27.00;14.57;;;2.10;99.90;;;;;;4990814;28;20039;-79
2021/11/25 06:55:13;;;;;;;25.10;14.95;;;2.40;99.90;;;;;;4987192;28;20030;-79
2021/11/25 06:57:39;;;;;;;27.00;14.43;;;1.90;99.90;;;;;;4976993;28;20488;-79
2021/11/25 07:00:11;;;;;;;22.17;12.52;;;2.10;99.90;;;;;;4977610;28;20023;-79
2021/11/25 07:02:37;;;;;;;22.63;13.17;;;2.10;99.90;;;;;;4989346;28;20031;-79
2021/11/25 07:05:05;;;;;;;26.67;14.25;;;2.30;99.90;;;;;;4997056;28;20154;-79
2021/11/25 07:07:31;;;;;;;25.95;14.07;;;2.10;99.90;;;;;;4998385;28;20018;-79
2021/11/25 07:09:57;;;;;;;26.13;14.15;;;2.20;99.90;;;;;;4997218;28;20065;-79
2021/11/25 07:12:22;;;;;;;26.90;13.95;;;3.10;99.90;;;;;;4998823;28;20027;-79
2021/11/25 07:14:48;;;;;;;26.92;14.10;;;2.20;99.90;;;;;;4998816;28;20018;-79
2021/11/25 07:17:14;;;;;;;27.13;15.48;;;2.20;99.90;;;;;;4998459;28;20038;-79
2021/11/25 07:19:39;;;;;;;28.05;15.30;;;2.30;99.90;;;;;;4996867;28;20041;-79
2021/11/25 07:22:05;;;;;;;26.10;14.63;;;2.20;99.90;;;;;;4997929;28;20364;-79
2021/11/25 07:24:31;;;;;;;28.00;14.52;;;2.30;99.90;;;;;;4997127;28;20371;-79
2021/11/25 07:26:57;;;;;;;27.38;14.25;;;2.40;99.90;;;;;;4978991;28;20041;-79
2021/11/25 07:29:24;;;;;;;24.13;13.85;;;2.50;99.90;;;;;;4997170;28;20038;-80
2021/11/25 07:31:49;;;;;;;23.02;13.32;;;2.60;99.90;;;;;;5016274;28;20041;-79
2021/11/25 07:34:15;;;;;;;26.58;14.85;;;2.70;99.90;;;;;;4998705;28;20117;-78
2021/11/25 07:36:41;;;;;;;23.17;13.63;;;2.70;99.90;;;;;;5016524;28;20048;-79
2021/11/25 07:39:07;;;;;;;20.90;13.23;;;2.60;99.90;;;;;;5001823;28;20065;-78
2021/11/25 07:41:33;;;;;;;28.55;13.82;;;2.80;99.90;;;;;;4995685;28;20030;-78
2021/11/25 07:43:58;;;;;;;29.17;13.70;;;2.80;99.90;;;;;;4995566;28;20117;-78
2021/11/25 07:46:24;;;;;;;22.45;13.07;;;2.80;99.90;;;;;;4995318;28;20026;-78
2021/11/25 07:48:50;;;;;;;22.15;12.75;;;3.00;99.90;;;;;;4978489;28;20034;-78
2021/11/25 07:51:16;;;;;;;22.35;12.90;;;2.80;99.90;;;;;;4994641;28;20145;-78
2021/11/25 07:53:42;;;;;;;21.15;12.00;;;4.20;99.90;;;;;;4995315;28;20133;-78
2021/11/25 07:56:08;;;;;;;23.25;13.60;;;3.20;99.90;;;;;;4994165;28;20038;-78
2021/11/25 07:58:34;;;;;;;21.95;12.30;;;2.90;99.90;;;;;;4994715;28;20030;-76
2021/11/25 08:01:00;;;;;;;22.10;12.93;;;2.90;99.90;;;;;;4996679;28;20430;-79
2021/11/25 08:03:25;;;;;;;22.60;13.27;;;2.90;99.90;;;;;;4996354;28;20041;-79
2021/11/25 08:05:53;;;;;;;21.85;12.30;;;3.20;99.90;;;;;;4997221;28;20415;-78
2021/11/25 08:08:18;;;;;;;21.33;12.73;;;3.00;99.90;;;;;;4998991;28;20089;-78
2021/11/25 08:10:44;;;;;;;23.20;13.05;;;3.00;99.90;;;;;;4996683;28;20423;-79
2021/11/25 08:13:10;;;;;;;23.90;14.13;;;3.00;99.90;;;;;;4997407;28;20076;-78
2021/11/25 08:15:35;;;;;;;31.38;14.13;;;3.00;99.90;;;;;;4996667;28;20145;-78
2021/11/25 08:18:02;;;;;;;27.50;13.43;;;3.90;99.90;;;;;;4995794;28;20035;-78
2021/11/25 08:20:28;;;;;;;22.17;13.32;;;3.10;99.90;;;;;;4992646;28;20041;-78
2021/11/25 08:22:55;;;;;;;21.25;13.52;;;3.10;99.90;;;;;;4992868;28;20026;-78
2021/11/25 08:25:21;;;;;;;22.30;12.65;;;3.20;99.90;;;;;;4976723;28;20026;-78
2021/11/25 08:27:47;;;;;;;26.20;13.88;;;3.20;99.90;;;;;;4995977;28;20121;-78
2021/11/25 08:30:14;;;;;;;23.10;12.82;;;3.30;99.90;;;;;;4974212;28;20047;-78
2021/11/25 08:32:41;;;;;;;25.10;14.27;;;3.40;99.90;;;;;;4993957;28;20113;-78
2021/11/25 08:35:07;;;;;;;23.60;13.23;;;3.40;99.90;;;;;;4995602;28;20117;-78
2021/11/25 08:37:34;;;;;;;21.33;12.77;;;3.40;99.90;;;;;;4977705;28;20198;-78
2021/11/25 08:40:00;;;;;;;23.27;13.38;;;3.50;99.90;;;;;;4994309;28;20030;-78
2021/11/25 08:42:26;;;;;;;23.63;13.10;;;3.60;99.90;;;;;;4995935;28;20026;-78
2021/11/25 08:44:52;;;;;;;20.42;12.65;;;3.60;99.90;;;;;;4994928;28;20034;-78
2021/11/25 08:47:19;;;;;;;22.30;12.50;;;3.70;99.90;;;;;;4999851;28;20026;-79
2021/11/25 08:49:44;;;;;;;22.42;13.07;;;3.80;99.90;;;;;;5004200;28;20054;-80
2021/11/25 08:52:10;;;;;;;22.15;12.13;;;3.70;99.90;;;;;;5005012;28;20689;-80
2021/11/25 08:54:36;;;;;;;23.77;12.90;;;3.80;99.90;;;;;;4983971;28;20506;-79
2021/11/25 08:57:01;;;;;;;22.88;12.77;;;3.80;99.90;;;;;;4998350;28;20034;-79
2021/11/25 08:59:27;;;;;;;23.45;13.68;;;3.70;99.90;;;;;;4990624;28;20027;-79
2021/11/25 09:01:53;;;;;;;22.08;13.07;;;3.70;99.90;;;;;;4991875;28;20058;-79
2021/11/25 09:04:19;;;;;;;23.83;14.10;;;3.70;99.90;;;;;;4985293;28;20037;-81
2021/11/25 09:06:44;;;;;;;26.15;14.27;;;3.80;99.90;;;;;;4997143;28;20450;-82
2021/11/25 09:09:11;;;;;;;25.17;13.77;;;3.70;99.90;;;;;;4995200;28;20056;-78
2021/11/25 09:11:37;;;;;;;25.02;14.20;;;3.90;99.90;;;;;;4994984;28;20108;-78
2021/11/25 09:14:04;;;;;;;24.58;14.13;;;3.90;99.90;;;;;;4992910;28;20113;-78
2021/11/25 09:16:30;;;;;;;23.50;13.43;;;3.90;99.90;;;;;;4974037;28;20066;-78
2021/11/25 09:18:56;;;;;;;25.83;14.50;;;3.90;99.90;;;;;;4985373;28;20058;-78
2021/11/25 09:21:22;;;;;;;22.70;14.15;;;4.00;99.90;;;;;;4994179;28;20025;-77
2021/11/25 09:23:49;;;;;;;27.38;15.13;;;4.00;99.90;;;;;;4992759;28;20030;-77
2021/11/25 09:26:16;;;;;;;23.80;14.48;;;4.00;99.90;;;;;;4993167;28;20368;-77
2021/11/25 09:28:43;;;;;;;30.13;14.45;;;3.90;99.90;;;;;;4993205;28;20030;-78
2021/11/25 09:31:13;;;;;;;29.23;15.02;;;4.10;99.90;;;;;;4990822;28;20058;-77
2021/11/25 09:33:39;;;;;;;27.35;16.13;;;4.00;99.90;;;;;;4981510;28;20133;-78
2021/11/25 09:36:05;;;;;;;28.27;15.02;;;3.90;99.90;;;;;;4989234;28;20034;-78
2021/11/25 09:38:32;;;;;;;29.45;17.20;;;3.90;99.90;;;;;;4988992;28;20086;-78
2021/11/25 09:40:57;;;;;;;28.63;16.58;;;3.90;99.90;;;;;;4994388;28;20026;-79
2021/11/25 09:43:25;;;;;;;24.35;14.60;;;4.00;99.90;;;;;;4990347;28;20173;-81
2021/11/25 09:45:51;;;;;;;25.67;16.02;;;4.00;99.90;;;;;;4993325;28;20019;-81
2021/11/25 09:48:18;;;;;;;25.67;16.08;;;4.20;99.90;;;;;;4979721;28;20023;-80
2021/11/25 09:50:49;;;;;;;27.67;16.00;;;5.40;99.90;;;;;;4995518;28;20080;-80
2021/11/25 09:53:16;;;;;;;27.58;16.25;;;4.20;99.90;;;;;;4996177;28;20415;-79
2021/11/25 09:55:44;;;;;;;25.50;15.57;;;4.30;99.90;;;;;;4996187;28;20044;-80
2021/11/25 09:58:18;;;;;;;28.65;16.13;;;4.40;99.90;;;;;;4996029;28;20026;-79
2021/11/25 10:00:48;;;;;;;28.23;16.83;;;4.10;99.90;;;;;;4995691;28;20034;-79
2021/11/25 10:03:17;;;;;;;26.92;15.70;;;4.50;99.90;;;;;;4994979;28;20495;-79
2021/11/25 10:06:02;;;;;;;27.98;16.45;;;5.40;99.90;;;;;;4996077;28;20026;-80
2021/11/25 10:08:34;;;;;;;26.02;15.52;;;6.50;99.90;;;;;;4992316;28;20035;-80
2021/11/25 10:11:06;;;;;;;27.00;16.52;;;4.60;99.90;;;;;;4985445;28;20034;-80
2021/11/25 10:13:40;;;;;;;27.08;15.88;;;4.80;99.90;;;;;;5000835;28;20030;-80
2021/11/25 10:16:09;;;;;;;24.80;14.93;;;4.70;99.90;;;;;;5000128;28;20039;-79
2021/11/25 10:18:36;;;;;;;22.55;14.52;;;4.80;99.90;;;;;;4997527;28;20034;-79
2021/11/25 10:21:09;;;;;;;24.92;14.95;;;6.00;99.90;;;;;;4989811;28;20034;-80
2021/11/25 10:23:36;;;;;;;24.45;15.25;;;4.80;99.90;;;;;;5002782;28;20372;-79
2021/11/25 10:26:11;;;;;;;23.50;13.57;;;4.80;99.90;;;;;;5000378;28;20031;-79
2021/11/25 10:28:40;;;;;;;21.98;14.25;;;4.70;99.90;;;;;;4998613;28;21540;-79
2021/11/25 10:31:11;;;;;;;22.40;14.65;;;4.70;99.90;;;;;;4999251;28;20061;-80
2021/11/25 10:33:46;;;;;;;25.45;15.02;;;4.80;99.90;;;;;;5000003;28;20035;-79
2021/11/25 10:41:33;;;;;;;22.98;14.45;;;4.70;99.90;;;;;;5004695;28;20041;-79
2021/11/25 10:44:22;;;;;;;28.02;15.25;;;4.60;99.90;;;;;;5002227;28;20026;-79
2021/11/25 10:46:55;;;;;;;27.40;14.68;;;4.40;99.90;;;;;;5004731;28;20388;-80
2021/11/25 10:49:52;;;;;;;24.52;14.60;;;4.40;99.90;;;;;;5003190;28;20483;-80
2021/11/25 10:52:30;;;;;;;24.85;14.57;;;4.40;99.90;;;;;;5003312;28;20042;-81
2021/11/25 10:54:58;;;;;;;21.45;14.07;;;4.40;99.90;;;;;;5002576;28;20065;-84
2021/11/25 10:57:46;;;;;;;23.38;13.82;;;5.30;99.90;;;;;;4997284;28;20027;-83
2021/11/25 11:00:24;;;;;;;21.30;13.82;;;4.50;99.90;;;;;;4995677;28;20034;-81
2021/11/25 11:03:05;;;;;;;21.65;13.60;;;5.10;99.90;;;;;;5000461;28;20038;-82
2021/11/25 11:05:31;;;;;;;22.67;15.02;;;4.50;99.90;;;;;;5001003;28;20113;-82
2021/11/25 11:08:05;;;;;;;23.95;14.45;;;4.60;99.90;;;;;;5002487;28;20037;-83
2021/11/25 11:10:32;;;;;;;22.80;13.43;;;4.60;99.90;;;;;;4998717;28;20038;-82
2021/11/25 11:18:43;;;;;;;25.00;15.70;;;4.50;99.90;;;;;;4998437;28;20068;-82
2021/11/25 11:21:47;;;;;;;29.27;17.23;;;4.50;99.90;;;;;;4999891;28;20053;-82
2021/11/25 11:24:15;;;;;;;34.10;16.75;;;4.40;99.90;;;;;;4997808;28;20513;-82
2021/11/25 11:26:45;;;;;;;30.27;17.40;;;4.20;99.90;;;;;;5000679;28;20042;-83
2021/11/25 11:29:13;;;;;;;29.45;18.60;;;5.10;99.90;;;;;;5003092;28;20285;-84
2021/11/25 11:31:40;;;;;;;31.98;18.73;;;4.90;99.90;;;;;;5003165;28;20052;-84
2021/11/25 11:34:09;;;;;;;36.97;22.00;;;4.20;99.90;;;;;;5003328;28;20058;-84
2021/11/25 11:36:38;;;;;;;32.05;18.83;;;4.30;99.90;;;;;;5003573;28;20030;-83
2021/11/25 11:39:05;;;;;;;33.10;17.80;;;4.10;99.90;;;;;;4998867;28;20049;-83
2021/11/25 11:41:32;;;;;;;27.00;17.23;;;4.30;99.90;;;;;;4999526;28;20034;-82
2021/11/25 11:44:01;;;;;;;29.90;17.30;;;4.30;99.90;;;;;;4977798;28;20035;-83
2021/11/25 11:46:28;;;;;;;31.55;20.52;;;4.30;99.90;;;;;;4999078;28;20034;-84
2021/11/25 11:48:56;;;;;;;35.47;19.50;;;4.30;99.90;;;;;;4996740;28;20034;-83
2021/11/25 11:51:22;;;;;;;35.85;19.80;;;4.20;99.90;;;;;;4994273;28;20034;-82
2021/11/25 11:53:54;;;;;;;29.58;18.60;;;4.10;99.90;;;;;;4992709;28;20034;-83
2021/11/25 11:56:41;;;;;;;31.08;18.65;;;3.90;99.90;;;;;;4994855;28;20066;-84
2021/11/25 11:59:08;;;;;;;30.90;18.13;;;4.10;99.90;;;;;;4986974;28;20038;-82
2021/11/25 12:01:35;;;;;;;33.95;20.30;;;6.10;99.90;;;;;;4977093;28;20030;-83
2021/11/25 12:04:06;;;;;;;32.85;20.00;;;3.90;99.90;;;;;;4993949;28;20026;-83
2021/11/25 12:06:37;;;;;;;34.03;20.25;;;4.00;99.90;;;;;;4993963;28;20026;-83
2021/11/25 12:09:11;;;;;;;37.00;20.38;;;4.00;99.90;;;;;;4997036;28;20197;-83
2021/11/25 12:11:54;;;;;;;34.70;19.85;;;3.80;99.90;;;;;;4998617;28;20035;-83
2021/11/25 12:14:31;;;;;;;31.88;18.55;;;3.70;99.90;;;;;;4998981;28;20030;-83
2021/11/25 12:17:04;;;;;;;35.08;19.60;;;3.80;99.90;;;;;;4999624;28;20039;-82
2021/11/25 12:19:44;;;;;;;37.58;21.60;;;3.80;99.90;;;;;;5000019;28;20034;-83
2021/11/25 12:22:09;;;;;;;35.08;20.02;;;3.70;99.90;;;;;;5000640;28;20155;-83
2021/11/25 12:24:41;;;;;;;33.75;20.52;;;3.90;99.90;;;;;;4998153;28;20045;-83
2021/11/25 12:27:18;;;;;;;41.13;23.42;;;3.50;99.90;;;;;;5000277;28;20034;-83
2021/11/25 12:30:05;;;;;;;37.10;22.55;;;3.70;99.90;;;;;;5000240;28;20131;-83
2021/11/25 12:35:12;;;;;;;40.42;22.80;;;3.70;99.90;;;;;;4997652;28;20475;-82
2021/11/25 12:37:46;;;;;;;41.40;23.73;;;3.60;99.90;;;;;;4997172;28;20030;-82
2021/11/25 12:40:18;;;;;;;38.25;23.10;;;3.80;99.90;;;;;;4995826;28;20025;-82
2021/11/25 12:42:47;;;;;;;43.38;24.08;;;3.50;99.90;;;;;;4995050;28;20031;-82
2021/11/25 12:45:21;;;;;;;40.10;24.05;;;3.50;99.90;;;;;;4976925;28;20121;-83
2021/11/25 12:47:46;;;;;;;43.60;24.27;;;3.60;99.90;;;;;;4990195;28;20023;-82
2021/11/25 12:50:21;;;;;;;47.17;24.23;;;3.40;99.90;;;;;;4996218;28;20443;-83
2021/11/25 12:52:47;;;;;;;41.50;23.58;;;3.40;99.90;;;;;;4979362;28;20027;-83
2021/11/25 12:55:14;;;;;;;43.42;24.85;;;3.50;99.90;;;;;;4995718;28;20025;-82
2021/11/25 12:57:50;;;;;;;45.95;24.83;;;4.30;99.90;;;;;;4991651;28;20019;-81